sensor_id;sensor_type;location;lat;lon;timestamp;pressure;altitude;pressure_sealevel;temperature;humidity
32181;BME280;19172;51.504;3.894;2022-12-13T00:01:56;101110.53;;;5.12;65.61
32181;BME280;19172;51.504;3.894;2022-12-13T00:04:24;101113.06;;;5.41;67.53
32181;BME280;19172;51.504;3.894;2022-12-13T00:06:52;101112.75;;;5.30;67.72
32181;BME280;19172;51.504;3.894;2022-12-13T00:09:23;101106.91;;;5.09;68.34
32181;BME280;19172;51.504;3.894;2022-12-13T00:11:51;101110.03;;;5.25;68.08
32181;BME280;19172;51.504;3.894;2022-12-13T00:14:19;101112.50;;;5.52;68.80
32181;BME280;19172;51.504;3.894;2022-12-13T00:16:47;101106.97;;;5.42;68.67
32181;BME280;19172;51.504;3.894;2022-12-13T00:19:16;101105.34;;;5.47;68.63
32181;BME280;19172;51.504;3.894;2022-12-13T00:21:47;101109.53;;;5.40;68.02
32181;BME280;19172;51.504;3.894;2022-12-13T00:24:15;101101.06;;;5.49;67.86
32181;BME280;19172;51.504;3.894;2022-12-13T00:26:43;101098.19;;;5.72;67.10
32181;BME280;19172;51.504;3.894;2022-12-13T00:29:11;101106.81;;;5.68;67.93
32181;BME280;19172;51.504;3.894;2022-12-13T00:31:40;101104.75;;;5.57;66.62
32181;BME280;19172;51.504;3.894;2022-12-13T00:34:28;101096.03;;;5.91;67.75
32181;BME280;19172;51.504;3.894;2022-12-13T00:36:56;101093.91;;;6.10;67.34
32181;BME280;19172;51.504;3.894;2022-12-13T00:39:28;101090.38;;;6.08;66.38
32181;BME280;19172;51.504;3.894;2022-12-13T00:41:56;101102.28;;;5.63;65.51
32181;BME280;19172;51.504;3.894;2022-12-13T00:44:24;101093.63;;;5.65;65.73
32181;BME280;19172;51.504;3.894;2022-12-13T00:46:52;101080.84;;;5.77;65.71
32181;BME280;19172;51.504;3.894;2022-12-13T00:49:20;101085.03;;;5.71;67.01
32181;BME280;19172;51.504;3.894;2022-12-13T00:51:48;101076.81;;;5.59;65.59
32181;BME280;19172;51.504;3.894;2022-12-13T00:54:16;101068.06;;;5.25;65.71
32181;BME280;19172;51.504;3.894;2022-12-13T00:56:44;101073.72;;;5.41;66.92
32181;BME280;19172;51.504;3.894;2022-12-13T00:59:13;101068.09;;;5.58;67.80
32181;BME280;19172;51.504;3.894;2022-12-13T01:01:43;101071.63;;;5.27;66.74
32181;BME280;19172;51.504;3.894;2022-12-13T01:04:11;101071.84;;;5.37;67.27
32181;BME280;19172;51.504;3.894;2022-12-13T01:06:43;101063.81;;;5.29;68.25
32181;BME280;19172;51.504;3.894;2022-12-13T01:09:18;101067.66;;;5.10;67.79
32181;BME280;19172;51.504;3.894;2022-12-13T01:11:47;101066.53;;;4.71;67.87
32181;BME280;19172;51.504;3.894;2022-12-13T01:14:18;101058.75;;;5.04;68.67
32181;BME280;19172;51.504;3.894;2022-12-13T01:16:46;101049.97;;;5.34;69.29
32181;BME280;19172;51.504;3.894;2022-12-13T01:19:15;101049.22;;;5.39;68.06
32181;BME280;19172;51.504;3.894;2022-12-13T01:21:43;101051.00;;;5.08;68.42
32181;BME280;19172;51.504;3.894;2022-12-13T01:24:10;101057.25;;;5.13;68.39
32181;BME280;19172;51.504;3.894;2022-12-13T01:26:38;101058.00;;;5.09;69.26
32181;BME280;19172;51.504;3.894;2022-12-13T01:29:06;101056.78;;;5.61;68.64
32181;BME280;19172;51.504;3.894;2022-12-13T01:31:35;101059.59;;;5.68;68.38
32181;BME280;19172;51.504;3.894;2022-12-13T01:34:10;101052.97;;;5.84;68.00
32181;BME280;19172;51.504;3.894;2022-12-13T01:36:40;101047.63;;;5.79;67.35
32181;BME280;19172;51.504;3.894;2022-12-13T01:39:10;101050.78;;;5.99;67.29
32181;BME280;19172;51.504;3.894;2022-12-13T01:41:43;101057.84;;;5.69;67.15
32181;BME280;19172;51.504;3.894;2022-12-13T01:47:29;101068.75;;;4.87;67.32
32181;BME280;19172;51.504;3.894;2022-12-13T01:50:04;101064.56;;;4.94;67.61
32181;BME280;19172;51.504;3.894;2022-12-13T01:52:33;101064.47;;;4.91;68.43
32181;BME280;19172;51.504;3.894;2022-12-13T01:55:06;101064.00;;;4.75;68.85
32181;BME280;19172;51.504;3.894;2022-12-13T01:57:37;101064.69;;;4.98;69.60
32181;BME280;19172;51.504;3.894;2022-12-13T02:00:13;101071.88;;;5.05;69.68
32181;BME280;19172;51.504;3.894;2022-12-13T02:02:41;101067.34;;;5.31;69.50
32181;BME280;19172;51.504;3.894;2022-12-13T02:05:16;101063.28;;;5.42;69.97
32181;BME280;19172;51.504;3.894;2022-12-13T02:07:47;101067.84;;;5.18;69.44
32181;BME280;19172;51.504;3.894;2022-12-13T02:10:16;101059.56;;;4.73;68.45
32181;BME280;19172;51.504;3.894;2022-12-13T02:12:44;101061.13;;;5.27;70.26
32181;BME280;19172;51.504;3.894;2022-12-13T02:15:15;101066.59;;;4.74;68.79
32181;BME280;19172;51.504;3.894;2022-12-13T02:17:51;101065.88;;;4.79;69.26
32181;BME280;19172;51.504;3.894;2022-12-13T02:26:42;101057.75;;;5.64;69.19
32181;BME280;19172;51.504;3.894;2022-12-13T02:40:32;101057.41;;;5.52;66.46
32181;BME280;19172;51.504;3.894;2022-12-13T02:43:17;101061.38;;;5.37;66.01
32181;BME280;19172;51.504;3.894;2022-12-13T02:45:51;101057.22;;;5.45;67.46
32181;BME280;19172;51.504;3.894;2022-12-13T02:48:26;101045.25;;;4.90;67.36
32181;BME280;19172;51.504;3.894;2022-12-13T02:50:58;101041.19;;;5.01;68.00
32181;BME280;19172;51.504;3.894;2022-12-13T02:53:28;101044.03;;;5.42;68.73
32181;BME280;19172;51.504;3.894;2022-12-13T02:55:57;101042.16;;;5.70;67.87
32181;BME280;19172;51.504;3.894;2022-12-13T02:58:31;101048.25;;;5.37;67.57
32181;BME280;19172;51.504;3.894;2022-12-13T03:01:16;101048.63;;;5.17;67.84
32181;BME280;19172;51.504;3.894;2022-12-13T03:07:06;101040.16;;;5.27;66.93
32181;BME280;19172;51.504;3.894;2022-12-13T03:10:04;101047.75;;;5.17;67.16
32181;BME280;19172;51.504;3.894;2022-12-13T03:12:40;101033.63;;;5.45;68.09
32181;BME280;19172;51.504;3.894;2022-12-13T03:15:53;101042.03;;;4.69;66.66
32181;BME280;19172;51.504;3.894;2022-12-13T03:18:26;101034.75;;;5.21;67.43
32181;BME280;19172;51.504;3.894;2022-12-13T03:21:03;101034.75;;;5.54;68.44
32181;BME280;19172;51.504;3.894;2022-12-13T03:23:31;101037.81;;;5.71;67.19
32181;BME280;19172;51.504;3.894;2022-12-13T03:26:12;101038.88;;;5.79;67.07
32181;BME280;19172;51.504;3.894;2022-12-13T03:28:41;101038.22;;;5.86;66.23
32181;BME280;19172;51.504;3.894;2022-12-13T03:31:09;101030.56;;;5.95;67.19
32181;BME280;19172;51.504;3.894;2022-12-13T03:33:37;101030.44;;;5.91;65.84
32181;BME280;19172;51.504;3.894;2022-12-13T03:36:06;101027.03;;;5.95;66.42
32181;BME280;19172;51.504;3.894;2022-12-13T03:38:36;101031.22;;;5.87;64.56
32181;BME280;19172;51.504;3.894;2022-12-13T03:41:08;101028.81;;;5.96;64.63
32181;BME280;19172;51.504;3.894;2022-12-13T03:43:38;101027.09;;;5.98;64.55
32181;BME280;19172;51.504;3.894;2022-12-13T03:46:07;101030.56;;;5.61;64.39
32181;BME280;19172;51.504;3.894;2022-12-13T03:48:35;101037.06;;;5.76;64.99
32181;BME280;19172;51.504;3.894;2022-12-13T03:51:03;101036.28;;;5.13;64.21
32181;BME280;19172;51.504;3.894;2022-12-13T03:53:31;101027.22;;;4.71;66.25
32181;BME280;19172;51.504;3.894;2022-12-13T03:56:04;101024.53;;;4.99;67.09
32181;BME280;19172;51.504;3.894;2022-12-13T03:58:33;101013.25;;;5.34;66.69
32181;BME280;19172;51.504;3.894;2022-12-13T04:01:06;101015.09;;;5.06;67.05
32181;BME280;19172;51.504;3.894;2022-12-13T04:03:35;101010.47;;;5.28;68.35
32181;BME280;19172;51.504;3.894;2022-12-13T04:06:04;101011.34;;;4.96;67.72
32181;BME280;19172;51.504;3.894;2022-12-13T04:08:33;101019.44;;;4.14;68.27
32181;BME280;19172;51.504;3.894;2022-12-13T04:11:02;101011.22;;;4.92;68.88
32181;BME280;19172;51.504;3.894;2022-12-13T04:13:48;101014.97;;;5.32;69.68
32181;BME280;19172;51.504;3.894;2022-12-13T04:16:16;101012.41;;;5.36;68.58
32181;BME280;19172;51.504;3.894;2022-12-13T04:18:44;101011.97;;;5.19;68.38
32181;BME280;19172;51.504;3.894;2022-12-13T04:21:12;101019.78;;;5.17;68.82
32181;BME280;19172;51.504;3.894;2022-12-13T04:23:39;101008.94;;;5.37;68.97
32181;BME280;19172;51.504;3.894;2022-12-13T04:26:08;101004.88;;;5.15;69.00
32181;BME280;19172;51.504;3.894;2022-12-13T04:28:37;101008.63;;;5.24;68.39
32181;BME280;19172;51.504;3.894;2022-12-13T04:31:04;101001.94;;;5.37;68.91
32181;BME280;19172;51.504;3.894;2022-12-13T04:33:32;100998.94;;;5.55;68.70
32181;BME280;19172;51.504;3.894;2022-12-13T04:36:00;100999.75;;;5.88;68.74
32181;BME280;19172;51.504;3.894;2022-12-13T04:38:28;101009.94;;;5.76;68.23
32181;BME280;19172;51.504;3.894;2022-12-13T04:41:07;101010.00;;;5.77;68.34
32181;BME280;19172;51.504;3.894;2022-12-13T04:43:37;101000.41;;;5.79;67.97
32181;BME280;19172;51.504;3.894;2022-12-13T04:46:05;101006.88;;;5.92;67.96
32181;BME280;19172;51.504;3.894;2022-12-13T04:48:32;101014.75;;;5.94;67.50
32181;BME280;19172;51.504;3.894;2022-12-13T04:51:01;101013.03;;;5.94;67.23
32181;BME280;19172;51.504;3.894;2022-12-13T04:53:29;101008.84;;;6.02;66.64
32181;BME280;19172;51.504;3.894;2022-12-13T04:55:57;101015.22;;;6.12;65.54
32181;BME280;19172;51.504;3.894;2022-12-13T04:58:26;101010.88;;;6.14;65.70
32181;BME280;19172;51.504;3.894;2022-12-13T05:00:54;101004.34;;;6.34;65.46
32181;BME280;19172;51.504;3.894;2022-12-13T05:03:23;101006.81;;;5.91;64.81
32181;BME280;19172;51.504;3.894;2022-12-13T05:05:51;101011.28;;;5.26;64.17
32181;BME280;19172;51.504;3.894;2022-12-13T05:08:18;101005.69;;;5.47;64.49
32181;BME280;19172;51.504;3.894;2022-12-13T05:10:46;101009.66;;;5.31;65.72
32181;BME280;19172;51.504;3.894;2022-12-13T05:13:14;101006.06;;;5.27;65.10
32181;BME280;19172;51.504;3.894;2022-12-13T05:15:42;101006.22;;;5.32;66.08
32181;BME280;19172;51.504;3.894;2022-12-13T05:18:10;101004.25;;;5.58;65.12
32181;BME280;19172;51.504;3.894;2022-12-13T05:20:38;101007.66;;;5.55;66.16
32181;BME280;19172;51.504;3.894;2022-12-13T05:23:06;101004.03;;;5.49;65.53
32181;BME280;19172;51.504;3.894;2022-12-13T05:25:34;101004.50;;;5.68;64.92
32181;BME280;19172;51.504;3.894;2022-12-13T05:28:04;100999.38;;;5.73;65.95
32181;BME280;19172;51.504;3.894;2022-12-13T05:30:39;100999.63;;;5.83;65.27
32181;BME280;19172;51.504;3.894;2022-12-13T05:33:07;101001.63;;;5.92;65.73
32181;BME280;19172;51.504;3.894;2022-12-13T05:35:36;100989.91;;;5.79;65.43
32181;BME280;19172;51.504;3.894;2022-12-13T05:38:04;101000.66;;;5.89;65.05
32181;BME280;19172;51.504;3.894;2022-12-13T05:40:32;100991.78;;;5.85;64.34
32181;BME280;19172;51.504;3.894;2022-12-13T05:42:59;100983.19;;;5.89;65.24
32181;BME280;19172;51.504;3.894;2022-12-13T05:45:30;100988.69;;;6.01;64.74
32181;BME280;19172;51.504;3.894;2022-12-13T05:47:59;100998.03;;;5.89;64.44
32181;BME280;19172;51.504;3.894;2022-12-13T05:50:26;100996.97;;;5.82;63.56
32181;BME280;19172;51.504;3.894;2022-12-13T05:52:54;100989.78;;;5.75;63.80
32181;BME280;19172;51.504;3.894;2022-12-13T05:55:22;100993.34;;;5.77;63.74
32181;BME280;19172;51.504;3.894;2022-12-13T05:57:50;100990.81;;;5.81;63.65
32181;BME280;19172;51.504;3.894;2022-12-13T06:00:18;100996.38;;;5.92;63.66
32181;BME280;19172;51.504;3.894;2022-12-13T06:02:56;100987.38;;;5.84;63.30
32181;BME280;19172;51.504;3.894;2022-12-13T06:05:24;100996.06;;;5.81;63.08
32181;BME280;19172;51.504;3.894;2022-12-13T06:07:54;100995.19;;;5.81;63.50
32181;BME280;19172;51.504;3.894;2022-12-13T06:10:24;100999.00;;;5.92;63.40
32181;BME280;19172;51.504;3.894;2022-12-13T06:13:02;100993.44;;;5.81;63.46
32181;BME280;19172;51.504;3.894;2022-12-13T06:15:37;100998.75;;;5.83;62.67
32181;BME280;19172;51.504;3.894;2022-12-13T06:18:04;101006.94;;;5.61;62.26
32181;BME280;19172;51.504;3.894;2022-12-13T06:20:32;101000.88;;;5.63;63.96
32181;BME280;19172;51.504;3.894;2022-12-13T06:23:00;100996.53;;;5.64;63.27
32181;BME280;19172;51.504;3.894;2022-12-13T06:25:28;100988.81;;;5.71;63.36
32181;BME280;19172;51.504;3.894;2022-12-13T06:27:58;100992.56;;;5.81;63.97
32181;BME280;19172;51.504;3.894;2022-12-13T06:30:30;100985.56;;;5.80;63.58
32181;BME280;19172;51.504;3.894;2022-12-13T06:32:58;100990.81;;;5.80;63.45
32181;BME280;19172;51.504;3.894;2022-12-13T06:35:26;100990.88;;;5.83;63.32
32181;BME280;19172;51.504;3.894;2022-12-13T06:37:56;100991.75;;;5.83;62.93
32181;BME280;19172;51.504;3.894;2022-12-13T06:40:28;100983.56;;;5.70;63.40
32181;BME280;19172;51.504;3.894;2022-12-13T06:42:57;100987.69;;;5.60;63.17
32181;BME280;19172;51.504;3.894;2022-12-13T06:45:25;100991.75;;;5.83;62.70
32181;BME280;19172;51.504;3.894;2022-12-13T06:47:54;100987.16;;;5.75;62.68
32181;BME280;19172;51.504;3.894;2022-12-13T06:50:22;100978.72;;;5.51;62.53
32181;BME280;19172;51.504;3.894;2022-12-13T06:52:50;100991.09;;;5.56;62.64
32181;BME280;19172;51.504;3.894;2022-12-13T06:55:18;100981.53;;;5.58;63.03
32181;BME280;19172;51.504;3.894;2022-12-13T06:57:50;100983.03;;;5.49;63.87
32181;BME280;19172;51.504;3.894;2022-12-13T07:00:18;100988.91;;;5.39;62.99
32181;BME280;19172;51.504;3.894;2022-12-13T07:02:52;100982.31;;;5.54;63.08
32181;BME280;19172;51.504;3.894;2022-12-13T07:05:20;100994.53;;;5.55;63.03
32181;BME280;19172;51.504;3.894;2022-12-13T07:07:48;100994.59;;;5.57;63.67
32181;BME280;19172;51.504;3.894;2022-12-13T07:10:16;100988.66;;;5.64;64.29
32181;BME280;19172;51.504;3.894;2022-12-13T07:12:49;100989.63;;;5.69;63.13
32181;BME280;19172;51.504;3.894;2022-12-13T07:15:17;100985.41;;;5.74;63.21
32181;BME280;19172;51.504;3.894;2022-12-13T07:17:48;100982.66;;;5.69;62.55
32181;BME280;19172;51.504;3.894;2022-12-13T07:20:17;100979.13;;;5.67;62.46
32181;BME280;19172;51.504;3.894;2022-12-13T07:22:46;100988.72;;;5.67;61.57
32181;BME280;19172;51.504;3.894;2022-12-13T07:25:25;100992.88;;;5.59;62.58
32181;BME280;19172;51.504;3.894;2022-12-13T07:27:59;100997.50;;;5.67;61.96
32181;BME280;19172;51.504;3.894;2022-12-13T07:30:34;100992.47;;;5.76;62.24
32181;BME280;19172;51.504;3.894;2022-12-13T07:33:07;100990.66;;;5.74;61.81
32181;BME280;19172;51.504;3.894;2022-12-13T07:35:35;100988.81;;;5.71;61.93
32181;BME280;19172;51.504;3.894;2022-12-13T07:38:05;100990.53;;;5.69;61.64
32181;BME280;19172;51.504;3.894;2022-12-13T07:40:34;100991.44;;;5.36;62.15
32181;BME280;19172;51.504;3.894;2022-12-13T07:43:04;100990.13;;;5.53;62.20
32181;BME280;19172;51.504;3.894;2022-12-13T07:45:32;100998.44;;;5.37;63.68
32181;BME280;19172;51.504;3.894;2022-12-13T07:48:04;101001.47;;;5.52;63.03
32181;BME280;19172;51.504;3.894;2022-12-13T07:50:32;101004.88;;;5.49;63.05
32181;BME280;19172;51.504;3.894;2022-12-13T07:53:05;101001.09;;;5.71;63.75
32181;BME280;19172;51.504;3.894;2022-12-13T07:55:34;101006.53;;;5.80;63.23
32181;BME280;19172;51.504;3.894;2022-12-13T07:58:13;101021.19;;;5.72;63.86
32181;BME280;19172;51.504;3.894;2022-12-13T08:00:43;101017.06;;;5.81;63.10
32181;BME280;19172;51.504;3.894;2022-12-13T08:03:14;101015.44;;;5.52;62.73
32181;BME280;19172;51.504;3.894;2022-12-13T08:06:03;101023.03;;;5.07;63.04
32181;BME280;19172;51.504;3.894;2022-12-13T08:08:31;101023.53;;;4.94;64.54
32181;BME280;19172;51.504;3.894;2022-12-13T08:13:29;101030.41;;;5.55;65.28
32181;BME280;19172;51.504;3.894;2022-12-13T08:15:59;101030.06;;;5.43;65.11
32181;BME280;19172;51.504;3.894;2022-12-13T08:18:28;101034.91;;;5.60;64.86
32181;BME280;19172;51.504;3.894;2022-12-13T08:20:57;101049.38;;;5.45;65.02
32181;BME280;19172;51.504;3.894;2022-12-13T08:23:26;101049.59;;;5.54;65.85
32181;BME280;19172;51.504;3.894;2022-12-13T08:25:54;101045.94;;;5.47;64.42
32181;BME280;19172;51.504;3.894;2022-12-13T08:28:23;101042.34;;;5.78;65.54
32181;BME280;19172;51.504;3.894;2022-12-13T08:30:52;101042.41;;;5.45;64.99
32181;BME280;19172;51.504;3.894;2022-12-13T08:33:20;101037.81;;;5.71;64.60
32181;BME280;19172;51.504;3.894;2022-12-13T08:35:48;101032.97;;;5.86;65.21
32181;BME280;19172;51.504;3.894;2022-12-13T08:38:16;101023.25;;;5.83;64.79
32181;BME280;19172;51.504;3.894;2022-12-13T08:40:50;101023.97;;;5.78;65.31
32181;BME280;19172;51.504;3.894;2022-12-13T08:43:18;101028.38;;;5.45;64.34
32181;BME280;19172;51.504;3.894;2022-12-13T08:45:48;101032.38;;;5.65;64.67
32181;BME280;19172;51.504;3.894;2022-12-13T08:48:16;101028.81;;;5.96;65.15
32181;BME280;19172;51.504;3.894;2022-12-13T08:50:44;101042.53;;;4.87;65.74
32181;BME280;19172;51.504;3.894;2022-12-13T08:53:12;101029.25;;;5.12;65.70
32181;BME280;19172;51.504;3.894;2022-12-13T08:55:59;101034.25;;;5.03;66.71
32181;BME280;19172;51.504;3.894;2022-12-13T08:58:28;101038.63;;;5.04;67.37
32181;BME280;19172;51.504;3.894;2022-12-13T09:00:56;101035.88;;;4.68;67.38
32181;BME280;19172;51.504;3.894;2022-12-13T09:03:24;101031.16;;;5.18;68.13
32181;BME280;19172;51.504;3.894;2022-12-13T09:05:52;101039.25;;;4.94;69.41
32181;BME280;19172;51.504;3.894;2022-12-13T09:08:20;101035.34;;;4.80;68.40
32181;BME280;19172;51.504;3.894;2022-12-13T09:10:58;101040.03;;;4.92;69.94
32181;BME280;19172;51.504;3.894;2022-12-13T09:13:28;101047.25;;;4.41;68.86
32181;BME280;19172;51.504;3.894;2022-12-13T09:16:03;101034.84;;;4.63;71.04
32181;BME280;19172;51.504;3.894;2022-12-13T09:18:31;101034.63;;;4.86;71.08
32181;BME280;19172;51.504;3.894;2022-12-13T09:21:08;101034.81;;;4.62;72.02
32181;BME280;19172;51.504;3.894;2022-12-13T09:23:37;101036.31;;;4.24;72.22
32181;BME280;19172;51.504;3.894;2022-12-13T09:26:06;101035.31;;;5.43;73.18
32181;BME280;19172;51.504;3.894;2022-12-13T09:28:35;101039.34;;;5.63;72.47
32181;BME280;19172;51.504;3.894;2022-12-13T09:31:08;101042.84;;;5.29;72.00
32181;BME280;19172;51.504;3.894;2022-12-13T09:33:36;101036.50;;;4.90;70.98
32181;BME280;19172;51.504;3.894;2022-12-13T09:36:11;101031.38;;;5.25;72.13
32181;BME280;19172;51.504;3.894;2022-12-13T09:38:40;101029.97;;;5.40;71.50
32181;BME280;19172;51.504;3.894;2022-12-13T09:41:22;101026.81;;;5.85;72.14
32181;BME280;19172;51.504;3.894;2022-12-13T09:44:00;101024.31;;;6.27;72.13
32181;BME280;19172;51.504;3.894;2022-12-13T09:46:37;101029.56;;;5.23;70.72
32181;BME280;19172;51.504;3.894;2022-12-13T09:51:54;101024.25;;;6.26;70.01
32181;BME280;19172;51.504;3.894;2022-12-13T09:54:39;101025.81;;;5.13;68.71
32181;BME280;19172;51.504;3.894;2022-12-13T09:57:30;101031.94;;;6.17;68.50
32181;BME280;19172;51.504;3.894;2022-12-13T10:00:06;101030.72;;;6.40;68.79
32181;BME280;19172;51.504;3.894;2022-12-13T10:02:44;101021.31;;;6.50;67.29
32181;BME280;19172;51.504;3.894;2022-12-13T10:05:31;101013.97;;;6.35;66.49
32181;BME280;19172;51.504;3.894;2022-12-13T10:08:14;101011.91;;;6.61;67.17
32181;BME280;19172;51.504;3.894;2022-12-13T10:10:43;101002.78;;;6.44;66.09
32181;BME280;19172;51.504;3.894;2022-12-13T10:15:43;101010.00;;;5.77;66.99
32181;BME280;19172;51.504;3.894;2022-12-13T10:18:30;101001.28;;;5.44;67.34
32181;BME280;19172;51.504;3.894;2022-12-13T10:21:03;101001.41;;;5.50;66.78
32181;BME280;19172;51.504;3.894;2022-12-13T10:23:34;101005.50;;;5.73;67.73
32181;BME280;19172;51.504;3.894;2022-12-13T10:26:21;101005.59;;;5.78;67.97
32181;BME280;19172;51.504;3.894;2022-12-13T10:29:02;101006.66;;;5.50;68.12
32181;BME280;19172;51.504;3.894;2022-12-13T10:31:42;100986.97;;;6.03;67.42
32181;BME280;19172;51.504;3.894;2022-12-13T10:34:24;100981.16;;;6.16;68.22
32181;BME280;19172;51.504;3.894;2022-12-13T10:36:54;100987.72;;;5.62;67.01
32181;BME280;19172;51.504;3.894;2022-12-13T10:39:36;100982.75;;;6.49;67.60
32181;BME280;19172;51.504;3.894;2022-12-13T10:42:12;100989.97;;;6.59;66.51
32181;BME280;19172;51.504;3.894;2022-12-13T10:44:40;100981.00;;;6.49;65.27
32181;BME280;19172;51.504;3.894;2022-12-13T10:49:37;100965.28;;;6.94;64.04
32181;BME280;19172;51.504;3.894;2022-12-13T10:52:40;100971.69;;;7.10;63.78
32181;BME280;19172;51.504;3.894;2022-12-13T10:55:27;100964.06;;;7.23;63.90
32181;BME280;19172;51.504;3.894;2022-12-13T10:58:03;100962.44;;;7.31;63.33
32181;BME280;19172;51.504;3.894;2022-12-13T11:00:45;100971.09;;;6.78;62.79
32181;BME280;19172;51.504;3.894;2022-12-13T11:03:33;100963.91;;;7.16;63.18
32181;BME280;19172;51.504;3.894;2022-12-13T11:06:04;100950.28;;;7.36;62.30
32181;BME280;19172;51.504;3.894;2022-12-13T11:08:33;100942.38;;;7.38;61.81
32181;BME280;19172;51.504;3.894;2022-12-13T11:11:03;100958.31;;;5.75;62.30
32181;BME280;19172;51.504;3.894;2022-12-13T11:13:36;100944.41;;;6.16;62.69
32181;BME280;19172;51.504;3.894;2022-12-13T11:16:30;100941.97;;;6.24;62.26
32181;BME280;19172;51.504;3.894;2022-12-13T11:19:03;100936.41;;;5.03;63.67
32181;BME280;19172;51.504;3.894;2022-12-13T11:21:33;100933.84;;;5.76;63.71
32181;BME280;19172;51.504;3.894;2022-12-13T11:24:07;100934.41;;;5.99;64.15
32181;BME280;19172;51.504;3.894;2022-12-13T11:26:37;100925.56;;;5.23;64.98
32181;BME280;19172;51.504;3.894;2022-12-13T11:32:13;100904.69;;;6.01;65.64
32181;BME280;19172;51.504;3.894;2022-12-13T11:35:02;100913.69;;;6.54;66.06
32181;BME280;19172;51.504;3.894;2022-12-13T11:37:51;100913.53;;;6.47;64.71
32181;BME280;19172;51.504;3.894;2022-12-13T11:40:26;100912.78;;;5.73;65.41
32181;BME280;19172;51.504;3.894;2022-12-13T11:45:46;100904.75;;;6.03;67.46
32181;BME280;19172;51.504;3.894;2022-12-13T11:48:29;100896.78;;;5.61;66.19
32181;BME280;19172;51.504;3.894;2022-12-13T11:51:04;100892.03;;;6.22;67.17
32181;BME280;19172;51.504;3.894;2022-12-13T11:53:47;100883.72;;;6.45;67.22
32181;BME280;19172;51.504;3.894;2022-12-13T11:56:30;100889.28;;;6.16;65.96
32181;BME280;19172;51.504;3.894;2022-12-13T11:59:25;100882.94;;;6.05;65.40
32181;BME280;19172;51.504;3.894;2022-12-13T12:02:13;100882.97;;;6.52;65.71
32181;BME280;19172;51.504;3.894;2022-12-13T12:04:49;100889.53;;;6.28;65.14
32181;BME280;19172;51.504;3.894;2022-12-13T12:07:31;100886.81;;;6.69;66.29
32181;BME280;19172;51.504;3.894;2022-12-13T12:12:47;100882.34;;;6.18;65.62
32181;BME280;19172;51.504;3.894;2022-12-13T12:15:27;100877.72;;;6.98;65.63
32181;BME280;19172;51.504;3.894;2022-12-13T12:17:56;100878.66;;;6.10;65.46
32181;BME280;19172;51.504;3.894;2022-12-13T12:29:46;100862.59;;;5.58;66.76
32181;BME280;19172;51.504;3.894;2022-12-13T12:41:03;100853.34;;;4.03;69.60
32181;BME280;19172;51.504;3.894;2022-12-13T12:43:44;100859.56;;;4.38;70.50
32181;BME280;19172;51.504;3.894;2022-12-13T12:46:37;100862.56;;;3.91;72.14
32181;BME280;19172;51.504;3.894;2022-12-13T13:03:24;100845.94;;;5.18;73.18
32181;BME280;19172;51.504;3.894;2022-12-13T13:08:51;100847.16;;;4.97;74.48
32181;BME280;19172;51.504;3.894;2022-12-13T13:11:26;100843.03;;;5.08;75.46
32181;BME280;19172;51.504;3.894;2022-12-13T13:14:26;100831.72;;;5.07;74.56
32181;BME280;19172;51.504;3.894;2022-12-13T13:16:56;100831.00;;;5.53;74.68
32181;BME280;19172;51.504;3.894;2022-12-13T13:21:59;100821.38;;;4.79;74.05
32181;BME280;19172;51.504;3.894;2022-12-13T13:24:30;100825.22;;;4.59;73.61
32181;BME280;19172;51.504;3.894;2022-12-13T13:27:26;100812.06;;;5.26;74.66
32181;BME280;19172;51.504;3.894;2022-12-13T13:30:17;100799.22;;;5.01;74.64
32181;BME280;19172;51.504;3.894;2022-12-13T13:32:46;100797.34;;;4.28;74.58
32181;BME280;19172;51.504;3.894;2022-12-13T13:38:02;100799.13;;;4.62;76.47
32181;BME280;19172;51.504;3.894;2022-12-13T13:40:35;100801.94;;;4.37;76.34
32181;BME280;19172;51.504;3.894;2022-12-13T13:45:59;100790.91;;;5.59;77.26
32181;BME280;19172;51.504;3.894;2022-12-13T14:28:28;100748.44;;;5.76;78.49
32181;BME280;19172;51.504;3.894;2022-12-13T14:30:43;100746.38;;;5.60;76.71
32181;BME280;19172;51.504;3.894;2022-12-13T14:33:22;100752.06;;;4.65;76.15
32181;BME280;19172;51.504;3.894;2022-12-13T14:35:51;100755.44;;;4.26;75.54
32181;BME280;19172;51.504;3.894;2022-12-13T14:38:25;100751.16;;;4.64;76.53
32181;BME280;19172;51.504;3.894;2022-12-13T14:40:56;100760.81;;;4.67;75.24
32181;BME280;19172;51.504;3.894;2022-12-13T14:43:33;100765.78;;;4.91;76.89
32181;BME280;19172;51.504;3.894;2022-12-13T14:46:05;100762.03;;;4.45;75.08
32181;BME280;19172;51.504;3.894;2022-12-13T14:48:44;100765.44;;;5.14;76.57
32181;BME280;19172;51.504;3.894;2022-12-13T14:51:34;100757.09;;;4.24;75.60
32181;BME280;19172;51.504;3.894;2022-12-13T14:54:06;100762.69;;;4.72;77.01
32181;BME280;19172;51.504;3.894;2022-12-13T14:56:34;100751.31;;;5.06;76.34
32181;BME280;19172;51.504;3.894;2022-12-13T14:59:11;100751.03;;;4.94;76.57
32181;BME280;19172;51.504;3.894;2022-12-13T15:01:39;100742.97;;;4.87;77.72
32181;BME280;19172;51.504;3.894;2022-12-13T15:06:45;100747.19;;;4.80;77.41
32181;BME280;19172;51.504;3.894;2022-12-13T15:09:15;100744.44;;;4.07;78.60
32181;BME280;19172;51.504;3.894;2022-12-13T15:11:44;100744.28;;;4.02;78.36
32181;BME280;19172;51.504;3.894;2022-12-13T15:14:19;100736.03;;;4.89;79.97
32181;BME280;19172;51.504;3.894;2022-12-13T15:16:53;100739.34;;;4.46;79.08
32181;BME280;19172;51.504;3.894;2022-12-13T15:19:30;100730.81;;;4.53;79.03
32181;BME280;19172;51.504;3.894;2022-12-13T15:22:13;100730.31;;;4.33;79.39
32181;BME280;19172;51.504;3.894;2022-12-13T15:24:45;100734.72;;;4.36;80.73
32181;BME280;19172;51.504;3.894;2022-12-13T15:27:21;100734.53;;;3.95;79.13
32181;BME280;19172;51.504;3.894;2022-12-13T15:29:52;100732.53;;;4.52;80.60
32181;BME280;19172;51.504;3.894;2022-12-13T15:32:21;100738.00;;;3.94;80.77
32181;BME280;19172;51.504;3.894;2022-12-13T15:34:50;100737.28;;;3.68;80.47
32181;BME280;19172;51.504;3.894;2022-12-13T15:37:31;100729.41;;;4.33;81.71